Weather at Balen-Keiheuvel Airfield

Public forecast

Using degrees Celsius for public forecast. Weather courtesy of forecast.io.

Closest aviation weather report (METAR) to Balen-Keiheuvel Airfield

Closest report is Kleine Brogel Air Base, 9.4 nm (17.4 km) E. Retrieved 2021/09/28 18:25 UTC (23 minutes ago):

EBBL 281825Z VRB02KT 9999 FEW040 SCT200 13/10 Q1019 BLU BLU

Closest aviation forecast (TAF) to Balen-Keiheuvel Airfield

Forecast is more than 12 hours old.

Closest forecast is Kleine Brogel Air Base, 9.4 nm (17.4 km) E. Retrieved 2021/09/10 19:12 UTC (18 days ago):

TAF TAF EBBL 101541Z 1019/1107 22008KT 9999 SCT025 BKN090 PROB40 TEMPO 1019/1020 22010G25KT 2000 TSRAGR SCT005 BKN010CB TEMPO 1019/1021 22010G20KT 5000 -SHRA BKN015 BECMG 1023/1101 BKN010